sensor_id;sensor_type;location;lat;lon;timestamp;pressure;altitude;pressure_sealevel;temperature;humidity
20119;BME280;10220;42.716;23.306;2022-09-09T00:00:55;95470.56;;;21.20;100.00
20119;BME280;10220;42.716;23.306;2022-09-09T00:03:27;95434.91;;;20.87;100.00
20119;BME280;10220;42.716;23.306;2022-09-09T00:11:20;95462.78;;;20.27;100.00
20119;BME280;10220;42.716;23.306;2022-09-09T00:13:52;95465.59;;;20.67;100.00
20119;BME280;10220;42.716;23.306;2022-09-09T00:16:24;95463.69;;;21.04;100.00
20119;BME280;10220;42.716;23.306;2022-09-09T00:21:27;95459.94;;;20.90;100.00
20119;BME280;10220;42.716;23.306;2022-09-09T00:23:57;95444.09;;;20.80;100.00
20119;BME280;10220;42.716;23.306;2022-09-09T00:31:34;95436.47;;;19.24;100.00
20119;BME280;10220;42.716;23.306;2022-09-09T00:36:35;95400.09;;;20.75;100.00
20119;BME280;10220;42.716;23.306;2022-09-09T00:39:03;95423.09;;;21.00;100.00
20119;BME280;10220;42.716;23.306;2022-09-09T00:55:44;95415.34;;;20.17;100.00
20119;BME280;10220;42.716;23.306;2022-09-09T00:58:10;95438.19;;;20.63;100.00
20119;BME280;10220;42.716;23.306;2022-09-09T01:11:26;95430.44;;;20.32;100.00
20119;BME280;10220;42.716;23.306;2022-09-09T01:14:11;95438.16;;;20.48;100.00
20119;BME280;10220;42.716;23.306;2022-09-09T01:16:40;95427.47;;;19.46;100.00
20119;BME280;10220;42.716;23.306;2022-09-09T01:19:10;95433.53;;;19.83;100.00
20119;BME280;10220;42.716;23.306;2022-09-09T01:21:52;95419.47;;;20.03;100.00
20119;BME280;10220;42.716;23.306;2022-09-09T01:24:38;95423.22;;;20.63;100.00
20119;BME280;10220;42.716;23.306;2022-09-09T01:27:05;95417.91;;;20.54;100.00
20119;BME280;10220;42.716;23.306;2022-09-09T01:29:32;95416.47;;;19.54;100.00
20119;BME280;10220;42.716;23.306;2022-09-09T01:32:00;95398.56;;;19.15;100.00
20119;BME280;10220;42.716;23.306;2022-09-09T01:34:36;95421.06;;;19.68;100.00
20119;BME280;10220;42.716;23.306;2022-09-09T01:37:06;95444.44;;;19.96;100.00
20119;BME280;10220;42.716;23.306;2022-09-09T01:39:36;95444.81;;;19.78;100.00
20119;BME280;10220;42.716;23.306;2022-09-09T01:42:05;95445.81;;;19.41;100.00
20119;BME280;10220;42.716;23.306;2022-09-09T01:44:32;95442.97;;;18.69;100.00
20119;BME280;10220;42.716;23.306;2022-09-09T01:46:57;95441.44;;;18.14;100.00
20119;BME280;10220;42.716;23.306;2022-09-09T01:49:23;95458.28;;;18.77;100.00
20119;BME280;10220;42.716;23.306;2022-09-09T01:51:53;95453.41;;;19.06;100.00
20119;BME280;10220;42.716;23.306;2022-09-09T01:54:22;95454.78;;;19.40;100.00
20119;BME280;10220;42.716;23.306;2022-09-09T02:07:14;95414.66;;;20.37;100.00
20119;BME280;10220;42.716;23.306;2022-09-09T02:09:47;95434.94;;;19.28;100.00
20119;BME280;10220;42.716;23.306;2022-09-09T02:12:16;95442.81;;;19.01;100.00
20119;BME280;10220;42.716;23.306;2022-09-09T02:14:56;95425.38;;;19.17;100.00
20119;BME280;10220;42.716;23.306;2022-09-09T02:17:28;95433.38;;;18.79;100.00
20119;BME280;10220;42.716;23.306;2022-09-09T02:20:04;95432.28;;;18.54;100.00
20119;BME280;10220;42.716;23.306;2022-09-09T02:22:31;95432.59;;;19.31;100.00
20119;BME280;10220;42.716;23.306;2022-09-09T02:24:59;95442.31;;;19.62;100.00
20119;BME280;10220;42.716;23.306;2022-09-09T02:27:25;95446.03;;;19.97;100.00
20119;BME280;10220;42.716;23.306;2022-09-09T02:29:51;95442.22;;;20.19;100.00
20119;BME280;10220;42.716;23.306;2022-09-09T02:32:21;95436.00;;;19.94;100.00
20119;BME280;10220;42.716;23.306;2022-09-09T02:34:50;95429.38;;;19.55;100.00
20119;BME280;10220;42.716;23.306;2022-09-09T02:37:19;95440.81;;;19.71;100.00
20119;BME280;10220;42.716;23.306;2022-09-09T02:39:46;95448.47;;;19.77;100.00
20119;BME280;10220;42.716;23.306;2022-09-09T02:42:11;95370.25;;;18.69;100.00
20119;BME280;10220;42.716;23.306;2022-09-09T02:44:39;95439.47;;;19.32;100.00
20119;BME280;10220;42.716;23.306;2022-09-09T02:52:45;95442.81;;;19.28;100.00
20119;BME280;10220;42.716;23.306;2022-09-09T02:55:39;95444.00;;;18.68;100.00
20119;BME280;10220;42.716;23.306;2022-09-09T02:58:07;95443.03;;;18.52;100.00
20119;BME280;10220;42.716;23.306;2022-09-09T03:00:35;95440.63;;;18.93;100.00
20119;BME280;10220;42.716;23.306;2022-09-09T03:03:03;95445.41;;;18.75;100.00
20119;BME280;10220;42.716;23.306;2022-09-09T03:05:29;95431.13;;;19.14;100.00
20119;BME280;10220;42.716;23.306;2022-09-09T03:07:54;95440.28;;;18.64;100.00
20119;BME280;10220;42.716;23.306;2022-09-09T03:10:20;95452.00;;;18.78;100.00
20119;BME280;10220;42.716;23.306;2022-09-09T03:12:45;95454.16;;;19.33;100.00
20119;BME280;10220;42.716;23.306;2022-09-09T03:15:11;95462.25;;;18.79;100.00
20119;BME280;10220;42.716;23.306;2022-09-09T03:17:36;95450.44;;;19.03;100.00
20119;BME280;10220;42.716;23.306;2022-09-09T03:20:03;95454.22;;;19.69;100.00
20119;BME280;10220;42.716;23.306;2022-09-09T03:22:29;95444.03;;;19.83;100.00
20119;BME280;10220;42.716;23.306;2022-09-09T03:24:54;95440.75;;;19.66;100.00
20119;BME280;10220;42.716;23.306;2022-09-09T03:27:20;95453.34;;;19.59;100.00
20119;BME280;10220;42.716;23.306;2022-09-09T03:29:46;95400.97;;;19.89;100.00
20119;BME280;10220;42.716;23.306;2022-09-09T03:32:11;95431.97;;;19.19;100.00
20119;BME280;10220;42.716;23.306;2022-09-09T03:34:37;95452.31;;;18.60;100.00
20119;BME280;10220;42.716;23.306;2022-09-09T03:37:06;95446.56;;;18.04;100.00
20119;BME280;10220;42.716;23.306;2022-09-09T03:39:32;95445.06;;;18.08;100.00
20119;BME280;10220;42.716;23.306;2022-09-09T03:41:58;95428.13;;;18.58;100.00
20119;BME280;10220;42.716;23.306;2022-09-09T03:44:24;95428.94;;;19.32;100.00
20119;BME280;10220;42.716;23.306;2022-09-09T03:46:49;95425.66;;;19.20;100.00
20119;BME280;10220;42.716;23.306;2022-09-09T03:49:15;95432.66;;;19.10;100.00
20119;BME280;10220;42.716;23.306;2022-09-09T03:51:41;95459.34;;;19.02;100.00
20119;BME280;10220;42.716;23.306;2022-09-09T03:54:07;95443.53;;;19.18;100.00
20119;BME280;10220;42.716;23.306;2022-09-09T03:56:35;95430.34;;;19.13;100.00
20119;BME280;10220;42.716;23.306;2022-09-09T03:59:01;95461.06;;;19.70;100.00
20119;BME280;10220;42.716;23.306;2022-09-09T04:01:27;95453.63;;;19.94;100.00
20119;BME280;10220;42.716;23.306;2022-09-09T04:03:53;95467.91;;;19.14;100.00
20119;BME280;10220;42.716;23.306;2022-09-09T04:06:18;95463.16;;;18.25;100.00
20119;BME280;10220;42.716;23.306;2022-09-09T04:08:46;95456.00;;;18.85;100.00
20119;BME280;10220;42.716;23.306;2022-09-09T04:11:14;95455.00;;;18.43;100.00
20119;BME280;10220;42.716;23.306;2022-09-09T04:13:40;95446.78;;;18.83;100.00
20119;BME280;10220;42.716;23.306;2022-09-09T04:16:08;95462.56;;;18.61;100.00
20119;BME280;10220;42.716;23.306;2022-09-09T04:18:34;95450.34;;;18.29;100.00
20119;BME280;10220;42.716;23.306;2022-09-09T04:21:00;95446.56;;;18.63;100.00
20119;BME280;10220;42.716;23.306;2022-09-09T04:23:28;95447.25;;;19.01;100.00
20119;BME280;10220;42.716;23.306;2022-09-09T04:25:55;95456.31;;;18.88;100.00
20119;BME280;10220;42.716;23.306;2022-09-09T04:28:23;95468.41;;;18.89;100.00
20119;BME280;10220;42.716;23.306;2022-09-09T04:30:49;95457.84;;;18.63;100.00
20119;BME280;10220;42.716;23.306;2022-09-09T04:33:15;95426.56;;;18.35;100.00
20119;BME280;10220;42.716;23.306;2022-09-09T04:35:46;95464.63;;;18.38;100.00
20119;BME280;10220;42.716;23.306;2022-09-09T04:38:13;95452.50;;;18.53;100.00
20119;BME280;10220;42.716;23.306;2022-09-09T04:40:38;95452.59;;;18.63;100.00
20119;BME280;10220;42.716;23.306;2022-09-09T04:43:08;95460.81;;;18.93;100.00
20119;BME280;10220;42.716;23.306;2022-09-09T04:45:33;95459.38;;;18.59;100.00
20119;BME280;10220;42.716;23.306;2022-09-09T04:47:59;95467.44;;;18.31;100.00
20119;BME280;10220;42.716;23.306;2022-09-09T04:50:25;95461.97;;;18.54;100.00
20119;BME280;10220;42.716;23.306;2022-09-09T04:52:50;95453.53;;;18.52;100.00
20119;BME280;10220;42.716;23.306;2022-09-09T04:55:16;95440.84;;;18.07;100.00
20119;BME280;10220;42.716;23.306;2022-09-09T04:57:41;95441.56;;;18.19;100.00
20119;BME280;10220;42.716;23.306;2022-09-09T05:00:07;95444.47;;;18.86;100.00
20119;BME280;10220;42.716;23.306;2022-09-09T05:02:37;95452.69;;;19.16;100.00
20119;BME280;10220;42.716;23.306;2022-09-09T05:05:03;95411.50;;;18.74;100.00
20119;BME280;10220;42.716;23.306;2022-09-09T05:07:28;95444.31;;;19.19;100.00
20119;BME280;10220;42.716;23.306;2022-09-09T05:09:54;95434.47;;;19.36;100.00
20119;BME280;10220;42.716;23.306;2022-09-09T05:12:19;95434.44;;;19.31;100.00
20119;BME280;10220;42.716;23.306;2022-09-09T05:14:45;95416.97;;;18.93;100.00
20119;BME280;10220;42.716;23.306;2022-09-09T05:17:10;95461.50;;;19.05;100.00
20119;BME280;10220;42.716;23.306;2022-09-09T05:19:36;95439.72;;;18.83;100.00
20119;BME280;10220;42.716;23.306;2022-09-09T05:22:02;95433.53;;;19.15;100.00
20119;BME280;10220;42.716;23.306;2022-09-09T05:24:28;95436.91;;;19.42;100.00
20119;BME280;10220;42.716;23.306;2022-09-09T05:26:54;95424.72;;;19.05;100.00
20119;BME280;10220;42.716;23.306;2022-09-09T05:29:25;95427.53;;;18.98;100.00
20119;BME280;10220;42.716;23.306;2022-09-09T05:31:51;95433.47;;;19.10;100.00
20119;BME280;10220;42.716;23.306;2022-09-09T05:34:17;95425.75;;;19.30;100.00
20119;BME280;10220;42.716;23.306;2022-09-09T05:36:42;95442.72;;;19.49;100.00
20119;BME280;10220;42.716;23.306;2022-09-09T05:39:08;95438.72;;;19.73;100.00
20119;BME280;10220;42.716;23.306;2022-09-09T05:41:33;95445.84;;;19.77;100.00
20119;BME280;10220;42.716;23.306;2022-09-09T05:43:59;95430.22;;;19.61;100.00
20119;BME280;10220;42.716;23.306;2022-09-09T05:46:26;95427.50;;;19.51;100.00
20119;BME280;10220;42.716;23.306;2022-09-09T05:48:52;95442.00;;;19.53;100.00
20119;BME280;10220;42.716;23.306;2022-09-09T05:51:24;95455.84;;;19.44;100.00
20119;BME280;10220;42.716;23.306;2022-09-09T05:53:50;95441.72;;;19.24;100.00
20119;BME280;10220;42.716;23.306;2022-09-09T05:56:22;95435.69;;;19.23;100.00
20119;BME280;10220;42.716;23.306;2022-09-09T05:58:50;95452.88;;;19.09;100.00
20119;BME280;10220;42.716;23.306;2022-09-09T06:01:19;95447.25;;;19.22;100.00
20119;BME280;10220;42.716;23.306;2022-09-09T06:03:46;95452.88;;;19.36;100.00
20119;BME280;10220;42.716;23.306;2022-09-09T06:06:19;95465.19;;;19.30;100.00
20119;BME280;10220;42.716;23.306;2022-09-09T06:08:51;95420.81;;;19.34;100.00
20119;BME280;10220;42.716;23.306;2022-09-09T06:11:22;95441.72;;;20.22;100.00
20119;BME280;10220;42.716;23.306;2022-09-09T06:13:49;95455.97;;;20.31;100.00
20119;BME280;10220;42.716;23.306;2022-09-09T06:16:18;95453.53;;;20.20;100.00
20119;BME280;10220;42.716;23.306;2022-09-09T06:18:43;95449.03;;;20.20;100.00
20119;BME280;10220;42.716;23.306;2022-09-09T06:21:15;95463.94;;;20.41;100.00
20119;BME280;10220;42.716;23.306;2022-09-09T06:23:41;95460.22;;;20.98;100.00
20119;BME280;10220;42.716;23.306;2022-09-09T06:26:11;95460.03;;;21.34;100.00
20119;BME280;10220;42.716;23.306;2022-09-09T06:28:37;95467.72;;;21.66;100.00
20119;BME280;10220;42.716;23.306;2022-09-09T06:31:08;95424.44;;;22.01;100.00
20119;BME280;10220;42.716;23.306;2022-09-09T06:33:36;95459.50;;;22.37;100.00
20119;BME280;10220;42.716;23.306;2022-09-09T06:36:04;95417.28;;;22.27;100.00
20119;BME280;10220;42.716;23.306;2022-09-09T06:38:30;95445.16;;;22.62;100.00
20119;BME280;10220;42.716;23.306;2022-09-09T06:40:58;95447.56;;;22.54;100.00
20119;BME280;10220;42.716;23.306;2022-09-09T06:43:25;95461.59;;;22.44;100.00
20119;BME280;10220;42.716;23.306;2022-09-09T06:45:54;95443.25;;;22.78;99.52
20119;BME280;10220;42.716;23.306;2022-09-09T06:48:20;95438.75;;;22.83;100.00
20119;BME280;10220;42.716;23.306;2022-09-09T06:50:45;95438.56;;;22.60;100.00
20119;BME280;10220;42.716;23.306;2022-09-09T06:53:11;95465.50;;;22.62;100.00
20119;BME280;10220;42.716;23.306;2022-09-09T06:55:36;95452.56;;;22.60;99.29
20119;BME280;10220;42.716;23.306;2022-09-09T06:58:02;95468.69;;;22.64;98.59
20119;BME280;10220;42.716;23.306;2022-09-09T07:00:27;95464.47;;;22.58;99.79
20119;BME280;10220;42.716;23.306;2022-09-09T07:02:53;95459.88;;;22.88;97.75
20119;BME280;10220;42.716;23.306;2022-09-09T07:05:19;95457.41;;;22.24;99.72
20119;BME280;10220;42.716;23.306;2022-09-09T07:07:44;95472.94;;;22.55;99.47
20119;BME280;10220;42.716;23.306;2022-09-09T07:10:10;95455.44;;;22.69;96.68
20119;BME280;10220;42.716;23.306;2022-09-09T07:12:35;95450.75;;;22.46;100.00
20119;BME280;10220;42.716;23.306;2022-09-09T07:15:00;95454.16;;;22.56;100.00
20119;BME280;10220;42.716;23.306;2022-09-09T07:17:27;95458.28;;;22.87;97.34
20119;BME280;10220;42.716;23.306;2022-09-09T07:19:54;95453.03;;;22.72;100.00
20119;BME280;10220;42.716;23.306;2022-09-09T07:22:19;95432.00;;;22.52;100.00
20119;BME280;10220;42.716;23.306;2022-09-09T07:24:45;95443.47;;;22.91;95.43
20119;BME280;10220;42.716;23.306;2022-09-09T07:27:10;95437.97;;;23.31;93.37
20119;BME280;10220;42.716;23.306;2022-09-09T07:29:36;95452.28;;;23.63;88.36
20119;BME280;10220;42.716;23.306;2022-09-09T07:32:01;95422.84;;;23.74;88.51
20119;BME280;10220;42.716;23.306;2022-09-09T07:34:27;95451.41;;;23.39;89.87
20119;BME280;10220;42.716;23.306;2022-09-09T07:36:53;95429.63;;;23.52;91.23
20119;BME280;10220;42.716;23.306;2022-09-09T07:39:18;95444.13;;;23.60;86.48
20119;BME280;10220;42.716;23.306;2022-09-09T07:41:46;95438.09;;;23.87;83.21
20119;BME280;10220;42.716;23.306;2022-09-09T07:44:17;95440.34;;;23.70;85.32
20119;BME280;10220;42.716;23.306;2022-09-09T07:46:43;95459.13;;;23.74;86.40
20119;BME280;10220;42.716;23.306;2022-09-09T07:49:10;95456.25;;;23.99;84.39
20119;BME280;10220;42.716;23.306;2022-09-09T07:51:38;95458.31;;;24.35;85.29
20119;BME280;10220;42.716;23.306;2022-09-09T07:54:10;95452.69;;;24.65;80.15
20119;BME280;10220;42.716;23.306;2022-09-09T07:56:36;95452.25;;;24.29;80.76
20119;BME280;10220;42.716;23.306;2022-09-09T07:59:02;95414.72;;;23.94;82.91
20119;BME280;10220;42.716;23.306;2022-09-09T08:01:34;95446.25;;;24.47;82.04
20119;BME280;10220;42.716;23.306;2022-09-09T08:04:16;95410.78;;;24.67;77.02
20119;BME280;10220;42.716;23.306;2022-09-09T08:06:47;95436.63;;;24.56;79.98
20119;BME280;10220;42.716;23.306;2022-09-09T08:09:14;95449.97;;;24.70;79.66
20119;BME280;10220;42.716;23.306;2022-09-09T08:11:40;95449.91;;;24.75;78.14
20119;BME280;10220;42.716;23.306;2022-09-09T08:14:07;95420.53;;;24.71;76.06
20119;BME280;10220;42.716;23.306;2022-09-09T08:16:35;95443.66;;;24.66;77.80
20119;BME280;10220;42.716;23.306;2022-09-09T08:19:03;95443.94;;;24.41;84.93
20119;BME280;10220;42.716;23.306;2022-09-09T08:21:30;95421.69;;;24.42;82.87
20119;BME280;10220;42.716;23.306;2022-09-09T08:23:59;95446.56;;;24.87;78.84
20119;BME280;10220;42.716;23.306;2022-09-09T08:26:33;95442.63;;;24.85;81.08
20119;BME280;10220;42.716;23.306;2022-09-09T08:29:00;95437.53;;;25.12;77.09
20119;BME280;10220;42.716;23.306;2022-09-09T08:31:30;95432.28;;;24.37;81.83
20119;BME280;10220;42.716;23.306;2022-09-09T08:33:57;95400.84;;;24.54;82.65
20119;BME280;10220;42.716;23.306;2022-09-09T08:36:27;95434.19;;;24.83;81.46
20119;BME280;10220;42.716;23.306;2022-09-09T08:38:56;95434.88;;;25.12;85.36
20119;BME280;10220;42.716;23.306;2022-09-09T08:51:31;95406.66;;;25.71;72.78
20119;BME280;10220;42.716;23.306;2022-09-09T08:54:00;95423.81;;;25.60;72.83
20119;BME280;10220;42.716;23.306;2022-09-09T08:56:28;95408.25;;;25.53;73.17
20119;BME280;10220;42.716;23.306;2022-09-09T08:58:56;95404.47;;;25.23;76.55
20119;BME280;10220;42.716;23.306;2022-09-09T09:07:27;95412.25;;;26.46;73.08
20119;BME280;10220;42.716;23.306;2022-09-09T09:10:24;95421.88;;;26.42;69.52
20119;BME280;10220;42.716;23.306;2022-09-09T09:12:56;95412.34;;;26.55;70.75
20119;BME280;10220;42.716;23.306;2022-09-09T09:15:31;95415.56;;;26.25;76.36
20119;BME280;10220;42.716;23.306;2022-09-09T09:18:02;95408.22;;;26.49;70.72
20119;BME280;10220;42.716;23.306;2022-09-09T09:20:50;95408.81;;;26.46;70.76
20119;BME280;10220;42.716;23.306;2022-09-09T09:23:24;95405.53;;;26.22;72.65
20119;BME280;10220;42.716;23.306;2022-09-09T09:25:56;95408.69;;;26.37;73.14
20119;BME280;10220;42.716;23.306;2022-09-09T09:28:30;95406.28;;;26.22;74.43
20119;BME280;10220;42.716;23.306;2022-09-09T09:31:01;95406.97;;;26.01;77.00
20119;BME280;10220;42.716;23.306;2022-09-09T09:36:02;95393.34;;;25.89;76.19
20119;BME280;10220;42.716;23.306;2022-09-09T09:38:28;95405.41;;;26.13;74.01
20119;BME280;10220;42.716;23.306;2022-09-09T09:40:56;95416.56;;;26.42;71.31
20119;BME280;10220;42.716;23.306;2022-09-09T09:43:36;95400.66;;;25.97;78.74
20119;BME280;10220;42.716;23.306;2022-09-09T09:46:05;95375.41;;;25.81;80.34
20119;BME280;10220;42.716;23.306;2022-09-09T09:48:43;95375.19;;;26.23;76.36
20119;BME280;10220;42.716;23.306;2022-09-09T09:51:12;95387.31;;;26.29;76.52
20119;BME280;10220;42.716;23.306;2022-09-09T09:53:41;95384.72;;;26.10;80.33
20119;BME280;10220;42.716;23.306;2022-09-09T09:56:11;95376.44;;;25.99;79.71
20119;BME280;10220;42.716;23.306;2022-09-09T10:01:23;95376.75;;;26.24;74.19
20119;BME280;10220;42.716;23.306;2022-09-09T10:04:00;95364.59;;;26.36;72.67
20119;BME280;10220;42.716;23.306;2022-09-09T10:06:32;95383.66;;;26.25;75.41
20119;BME280;10220;42.716;23.306;2022-09-09T10:08:59;95394.72;;;25.87;79.26
20119;BME280;10220;42.716;23.306;2022-09-09T10:22:36;95405.28;;;25.23;84.14
20119;BME280;10220;42.716;23.306;2022-09-09T10:27:57;95395.31;;;25.34;87.58
20119;BME280;10220;42.716;23.306;2022-09-09T10:30:47;95388.41;;;25.33;87.23
20119;BME280;10220;42.716;23.306;2022-09-09T10:52:05;95402.34;;;25.56;88.72
20119;BME280;10220;42.716;23.306;2022-09-09T10:55:02;95397.03;;;25.75;88.07
20119;BME280;10220;42.716;23.306;2022-09-09T10:57:36;95399.25;;;26.00;84.38
20119;BME280;10220;42.716;23.306;2022-09-09T11:00:06;95405.47;;;26.08;82.32
20119;BME280;10220;42.716;23.306;2022-09-09T11:02:41;95396.81;;;26.03;83.11
20119;BME280;10220;42.716;23.306;2022-09-09T11:05:18;95391.19;;;25.91;85.95
20119;BME280;10220;42.716;23.306;2022-09-09T11:07:52;95400.22;;;25.90;86.21
20119;BME280;10220;42.716;23.306;2022-09-09T11:10:28;95398.78;;;25.66;88.92
20119;BME280;10220;42.716;23.306;2022-09-09T11:13:03;95380.41;;;25.69;88.54
20119;BME280;10220;42.716;23.306;2022-09-09T11:15:42;95391.06;;;25.83;88.33
20119;BME280;10220;42.716;23.306;2022-09-09T11:18:17;95389.78;;;25.80;89.32
20119;BME280;10220;42.716;23.306;2022-09-09T11:20:46;95385.50;;;25.66;92.22
20119;BME280;10220;42.716;23.306;2022-09-09T11:23:17;95372.38;;;25.56;92.82
20119;BME280;10220;42.716;23.306;2022-09-09T11:25:55;95373.28;;;25.65;92.70
20119;BME280;10220;42.716;23.306;2022-09-09T11:31:21;95369.16;;;25.41;97.93
20119;BME280;10220;42.716;23.306;2022-09-09T11:37:08;95349.97;;;25.62;92.83
20119;BME280;10220;42.716;23.306;2022-09-09T11:39:49;95352.13;;;25.92;89.59
20119;BME280;10220;42.716;23.306;2022-09-09T11:42:21;95343.78;;;26.11;89.04
20119;BME280;10220;42.716;23.306;2022-09-09T11:44:47;95323.09;;;26.08;87.43
20119;BME280;10220;42.716;23.306;2022-09-09T11:47:30;95325.41;;;26.42;84.37
20119;BME280;10220;42.716;23.306;2022-09-09T11:52:39;95280.38;;;26.32;86.70
20119;BME280;10220;42.716;23.306;2022-09-09T11:57:38;95273.72;;;26.48;83.25
20119;BME280;10220;42.716;23.306;2022-09-09T12:00:05;95314.13;;;26.71;83.26
20119;BME280;10220;42.716;23.306;2022-09-09T12:02:30;95301.94;;;26.92;84.14
20119;BME280;10220;42.716;23.306;2022-09-09T12:05:01;95303.81;;;26.92;86.24
20119;BME280;10220;42.716;23.306;2022-09-09T12:07:52;95306.22;;;27.15;84.10
20119;BME280;10220;42.716;23.306;2022-09-09T12:10:29;95296.13;;;27.25;84.94
20119;BME280;10220;42.716;23.306;2022-09-09T12:12:55;95308.47;;;27.22;85.87
20119;BME280;10220;42.716;23.306;2022-09-09T12:15:32;95290.13;;;27.42;81.84
20119;BME280;10220;42.716;23.306;2022-09-09T12:17:58;95300.03;;;27.50;80.42
20119;BME280;10220;42.716;23.306;2022-09-09T12:20:33;95290.63;;;27.22;82.43
20119;BME280;10220;42.716;23.306;2022-09-09T12:28:24;95279.47;;;27.42;83.30
20119;BME280;10220;42.716;23.306;2022-09-09T12:34:06;95280.56;;;27.63;83.92
20119;BME280;10220;42.716;23.306;2022-09-09T12:36:35;95274.91;;;27.56;83.96
20119;BME280;10220;42.716;23.306;2022-09-09T12:39:14;95236.97;;;27.28;84.64
20119;BME280;10220;42.716;23.306;2022-09-09T12:41:41;95255.16;;;27.35;86.09
20119;BME280;10220;42.716;23.306;2022-09-09T12:44:09;95270.84;;;27.58;84.05
20119;BME280;10220;42.716;23.306;2022-09-09T12:46:41;95270.72;;;26.98;87.92
20119;BME280;10220;42.716;23.306;2022-09-09T12:49:34;95267.41;;;27.14;89.79
20119;BME280;10220;42.716;23.306;2022-09-09T12:52:16;95240.56;;;27.02;88.90
20119;BME280;10220;42.716;23.306;2022-09-09T12:54:45;95243.47;;;26.79;89.58
20119;BME280;10220;42.716;23.306;2022-09-09T12:57:12;95247.84;;;26.97;88.87
20119;BME280;10220;42.716;23.306;2022-09-09T12:59:43;95249.31;;;27.25;89.02
20119;BME280;10220;42.716;23.306;2022-09-09T13:02:21;95234.94;;;27.56;85.21
20119;BME280;10220;42.716;23.306;2022-09-09T13:04:48;95228.25;;;27.15;87.07
20119;BME280;10220;42.716;23.306;2022-09-09T13:07:16;95249.69;;;26.74;87.00
20119;BME280;10220;42.716;23.306;2022-09-09T13:09:43;95254.84;;;26.58;89.37
20119;BME280;10220;42.716;23.306;2022-09-09T13:12:22;95217.88;;;26.34;90.81
20119;BME280;10220;42.716;23.306;2022-09-09T13:14:53;95214.56;;;26.64;87.89
20119;BME280;10220;42.716;23.306;2022-09-09T13:17:24;95253.09;;;26.88;88.38
20119;BME280;10220;42.716;23.306;2022-09-09T13:19:51;95241.22;;;27.08;87.43
20119;BME280;10220;42.716;23.306;2022-09-09T13:22:31;95224.13;;;26.87;87.89
20119;BME280;10220;42.716;23.306;2022-09-09T13:25:01;95228.66;;;26.86;91.03
20119;BME280;10220;42.716;23.306;2022-09-09T13:27:31;95222.50;;;26.99;91.27
20119;BME280;10220;42.716;23.306;2022-09-09T13:29:57;95228.06;;;26.89;91.04
20119;BME280;10220;42.716;23.306;2022-09-09T13:32:24;95224.84;;;27.23;88.20
20119;BME280;10220;42.716;23.306;2022-09-09T13:34:52;95229.94;;;27.11;88.53
20119;BME280;10220;42.716;23.306;2022-09-09T13:39:52;95219.69;;;26.82;90.32
20119;BME280;10220;42.716;23.306;2022-09-09T13:42:28;95220.63;;;26.78;92.64
20119;BME280;10220;42.716;23.306;2022-09-09T13:44:56;95204.78;;;26.73;91.62
20119;BME280;10220;42.716;23.306;2022-09-09T13:47:29;95204.69;;;26.86;92.11
20119;BME280;10220;42.716;23.306;2022-09-09T13:49:56;95189.47;;;26.78;92.86
20119;BME280;10220;42.716;23.306;2022-09-09T13:52:21;95178.94;;;26.73;92.47
20119;BME280;10220;42.716;23.306;2022-09-09T13:54:51;95171.13;;;26.68;93.67
20119;BME280;10220;42.716;23.306;2022-09-09T13:57:19;95172.78;;;26.86;92.93
20119;BME280;10220;42.716;23.306;2022-09-09T13:59:46;95202.91;;;27.17;90.94
20119;BME280;10220;42.716;23.306;2022-09-09T14:02:12;95205.75;;;27.21;90.96
20119;BME280;10220;42.716;23.306;2022-09-09T14:04:37;95209.28;;;27.08;78.38
20119;BME280;10220;42.716;23.306;2022-09-09T14:07:03;95190.03;;;27.11;76.48
20119;BME280;10220;42.716;23.306;2022-09-09T14:09:28;95186.63;;;27.19;73.34
20119;BME280;10220;42.716;23.306;2022-09-09T14:11:54;95190.22;;;27.14;73.54
20119;BME280;10220;42.716;23.306;2022-09-09T14:14:22;95189.50;;;27.00;78.97
20119;BME280;10220;42.716;23.306;2022-09-09T14:16:48;95188.56;;;27.05;78.99
20119;BME280;10220;42.716;23.306;2022-09-09T14:19:13;95185.63;;;27.06;75.87
20119;BME280;10220;42.716;23.306;2022-09-09T14:21:39;95185.25;;;26.99;77.57
20119;BME280;10220;42.716;23.306;2022-09-09T14:24:04;95168.44;;;27.12;74.88
20119;BME280;10220;42.716;23.306;2022-09-09T14:26:30;95184.09;;;27.14;72.46
20119;BME280;10220;42.716;23.306;2022-09-09T14:28:56;95184.28;;;27.17;74.23
20119;BME280;10220;42.716;23.306;2022-09-09T14:31:25;95180.34;;;27.15;75.75
20119;BME280;10220;42.716;23.306;2022-09-09T14:33:50;95185.44;;;27.03;76.93
20119;BME280;10220;42.716;23.306;2022-09-09T14:36:16;95180.78;;;27.08;76.57
20119;BME280;10220;42.716;23.306;2022-09-09T14:38:41;95181.34;;;26.75;86.57
20119;BME280;10220;42.716;23.306;2022-09-09T14:41:12;95171.69;;;26.87;87.16
20119;BME280;10220;42.716;23.306;2022-09-09T14:43:38;95178.53;;;27.02;84.71
20119;BME280;10220;42.716;23.306;2022-09-09T14:46:05;95185.09;;;26.96;86.65
20119;BME280;10220;42.716;23.306;2022-09-09T14:48:31;95172.78;;;26.86;87.76
20119;BME280;10220;42.716;23.306;2022-09-09T14:51:05;95173.16;;;26.71;89.56
20119;BME280;10220;42.716;23.306;2022-09-09T14:53:30;95175.09;;;26.79;84.78
20119;BME280;10220;42.716;23.306;2022-09-09T14:56:06;95181.78;;;26.77;87.23
20119;BME280;10220;42.716;23.306;2022-09-09T14:58:32;95182.63;;;26.64;88.23
20119;BME280;10220;42.716;23.306;2022-09-09T15:01:27;95175.50;;;26.73;88.51
20119;BME280;10220;42.716;23.306;2022-09-09T15:03:54;95195.75;;;26.61;87.37
20119;BME280;10220;42.716;23.306;2022-09-09T15:06:22;95199.38;;;26.64;86.86
20119;BME280;10220;42.716;23.306;2022-09-09T15:08:50;95192.19;;;26.65;86.91